Decoded Metar for CYXY (WHITEHORSE in YT, CANADA) (IATA:YXY) | Meteo·Mobile Aviation Weather
aviador You're here:

CYXY Decoded Metar

WHITEHORSE in YT, CANADA
Report Time2018-11-17 01:00:00
UTC Time2018-11-17 02:10:18
Flight Rules Old
Wind170° at 12 kt
W.Decomp.*RWY 13: 11.6 kt HW 3.1 kt RCW
RWY 19: 8.5 kt HW 8.5 kt LCW
W.Rank170° ranks 2
Current wind is above 170° avg. (10.9)
Visibility9999 m
Phenomena:N/A
Clouds:Few 020 Hf
Broken 220 Hf
Expected CloudBase > 800 ft AGL from Temp-Dew spread
Ceiling22,000 ft
Temp-8°C (ISA -18)
Dew Point-10°C (86% RH)
AAT-15.4°C
QNH1024 hPa
Density Alt-299 ft
Elevation2,306 ft
Report Wrong Elevation
Raw Report
CYXY 170100Z 17012KT 15SM FEW020 BKN220 M08/M10 A3023 RMK SC1CI7
SC TR SLP298=

Extra information for CYXY:More info

Metar Taf Metar & Taf Last 4 Metars F.Rules Stats Wind Profile Meteogram Temp Stats Airport Information Weather charts Add Link Nearby VenuesMetar ALERT Operation Metar Decoded Social comments